Kirkburton, United Kingdom
Current Conditions -  °F | °C
As of 5:20 AM on Tuesday 21 Oct 2014 (Local Time) from EGNM Reporting Station
Rain Showers Rain Showers  
Wind Chill: 12°   Ceiling: 1000
Heat Index: 12°   Visibility: 6mi
Dew Point: 11°   Wind: 21mph
Humidity: 94%   Direction: 210°SSW
Pressure: 29.26"   Gusts: 32mph
Location:  53.61°N, 1.7°W
Report Text: EGNM 210420Z 21018G28KT 9999 -SHRA BKN010 12/11 Q0991
Loading
Personal Weather Stations






























Interactive Weather Map
Tropical Storm Tracking
New forecast layout! Learn more

10-Day Weather Forecast

Advertisements
Track Severe Weather on mobile